createdAt,value
2023-02-11T00:00:13.303Z,12.80
2023-02-11T00:05:15.613Z,13.83
2023-02-11T00:10:23.352Z,11.60
2023-02-11T00:15:29.636Z,14.20
2023-02-11T00:20:31.275Z,12.77
2023-02-11T00:25:40.004Z,12.30
2023-02-11T00:30:41.906Z,11.37
2023-02-11T00:35:48.316Z,13.87
2023-02-11T00:40:51.431Z,13.43
2023-02-11T00:45:56.127Z,13.63
2023-02-11T00:50:59.850Z,12.07
2023-02-11T00:56:06.641Z,13.27
2023-02-11T01:01:08.494Z,14.03
2023-02-11T01:06:10.904Z,14.63
2023-02-11T01:11:18.865Z,13.13
2023-02-11T01:16:23.650Z,14.10
2023-02-11T01:21:28.313Z,12.33
2023-02-11T01:26:34.789Z,12.20
2023-02-11T01:31:41.411Z,13.33
2023-02-11T01:36:47.672Z,13.93
2023-02-11T01:41:52.545Z,12.97
2023-02-11T01:46:56.757Z,11.70
2023-02-11T01:52:09.430Z,12.47
2023-02-11T01:57:22.149Z,12.60
2023-02-11T02:02:29.805Z,14.17
2023-02-11T02:07:43.999Z,12.43
2023-02-11T02:12:50.385Z,11.80
2023-02-11T02:18:03.017Z,13.27
2023-02-11T02:23:10.000Z,13.47
2023-02-11T02:28:20.198Z,12.30
2023-02-11T02:33:28.057Z,13.77
2023-02-11T02:38:40.509Z,11.37
2023-02-11T02:43:50.666Z,13.97
2023-02-11T02:49:00.690Z,14.13
2023-02-11T02:54:40.853Z,13.60
2023-02-11T02:59:54.191Z,13.60
2023-02-11T03:05:02.097Z,14.13
2023-02-11T03:10:09.119Z,14.17
2023-02-11T03:15:16.072Z,14.73
2023-02-11T03:20:20.283Z,14.67
2023-02-11T03:25:28.799Z,15.87
2023-02-11T03:30:34.888Z,13.97
2023-02-11T03:35:46.134Z,14.43
2023-02-11T03:40:50.639Z,15.30
2023-02-11T03:45:57.478Z,17.13
2023-02-11T03:51:04.737Z,17.90
2023-02-11T03:56:09.481Z,18.30
2023-02-11T04:01:14.970Z,18.13
2023-02-11T04:06:19.137Z,18.23
2023-02-11T04:11:23.376Z,18.87
2023-02-11T04:16:31.087Z,19.90
2023-02-11T04:21:35.055Z,19.53
2023-02-11T04:26:41.407Z,19.77
2023-02-11T04:31:45.501Z,21.40
2023-02-11T04:36:48.265Z,21.70
2023-02-11T04:41:51.050Z,15.73
2023-02-11T04:46:59.391Z,21.33
2023-02-11T04:52:06.191Z,23.70
2023-02-11T04:57:08.001Z,25.00
2023-02-11T05:02:11.973Z,25.53
2023-02-11T05:07:14.337Z,21.27
2023-02-11T05:12:16.094Z,22.50
2023-02-11T05:17:22.171Z,27.63
2023-02-11T05:22:28.746Z,24.17
2023-02-11T05:27:33.428Z,25.83
2023-02-11T05:32:42.476Z,25.77
2023-02-11T05:37:44.646Z,23.73
2023-02-11T05:42:48.624Z,23.30
2023-02-11T05:47:55.104Z,25.00
2023-02-11T05:52:59.103Z,23.13
2023-02-11T05:58:03.343Z,22.43
2023-02-11T06:03:05.323Z,21.63
2023-02-11T06:08:09.266Z,21.97
2023-02-11T06:13:13.600Z,22.53
2023-02-11T06:18:15.429Z,23.33
2023-02-11T06:23:19.452Z,21.33
2023-02-11T06:28:21.183Z,20.37
2023-02-11T06:33:27.642Z,20.97
2023-02-11T06:38:34.221Z,20.00
2023-02-11T06:43:38.312Z,14.83
2023-02-11T06:48:40.067Z,19.43
2023-02-11T06:53:44.445Z,18.33
2023-02-11T06:58:48.528Z,18.07
2023-02-11T07:03:51.449Z,16.27
2023-02-11T07:08:55.762Z,17.03
2023-02-11T07:14:10.141Z,17.53
2023-02-11T07:19:14.136Z,14.63
2023-02-11T07:24:16.190Z,16.07
2023-02-11T07:29:17.909Z,16.63
2023-02-11T07:34:22.815Z,17.30
2023-02-11T07:39:29.518Z,12.37
2023-02-11T07:44:33.262Z,14.03
2023-02-11T07:49:34.963Z,12.70
2023-02-11T07:54:36.924Z,13.43
2023-02-11T07:59:43.615Z,11.57
2023-02-11T08:04:47.127Z,11.80
2023-02-11T08:09:56.720Z,11.73
2023-02-11T08:14:59.623Z,10.97
2023-02-11T08:20:04.796Z,11.27
2023-02-11T08:25:09.548Z,11.20
2023-02-11T08:30:12.032Z,10.33
2023-02-11T08:35:15.901Z,8.73
2023-02-11T08:40:17.874Z,7.23
2023-02-11T08:45:22.178Z,8.00
2023-02-11T08:50:27.927Z,7.40
2023-02-11T08:55:29.727Z,7.13
2023-02-11T09:00:33.819Z,4.83
2023-02-11T09:05:53.642Z,6.83
2023-02-11T09:10:59.466Z,7.33
2023-02-11T09:16:07.973Z,6.77
2023-02-11T09:21:13.005Z,6.73
2023-02-11T09:26:17.946Z,6.40
2023-02-11T09:31:21.816Z,5.50
2023-02-11T09:36:30.992Z,5.70
2023-02-11T09:41:47.661Z,5.77
2023-02-11T09:46:59.707Z,5.63
2023-02-11T09:52:30.170Z,5.77
2023-02-11T09:57:36.559Z,5.90
2023-02-11T10:02:58.630Z,6.47
2023-02-11T10:08:15.852Z,5.60
2023-02-11T10:13:31.974Z,5.47
2023-02-11T10:18:42.662Z,5.90
2023-02-11T10:23:49.117Z,5.70
2023-02-11T10:28:54.559Z,5.30
2023-02-11T10:34:03.236Z,5.23
2023-02-11T10:39:18.694Z,5.37
2023-02-11T10:44:41.326Z,5.37
2023-02-11T10:49:45.502Z,5.03
2023-02-11T10:55:03.232Z,5.57
2023-02-11T11:00:36.130Z,5.83
2023-02-11T11:05:50.232Z,5.50
2023-02-11T11:11:05.318Z,5.13
2023-02-11T11:16:12.204Z,4.83
2023-02-11T11:21:29.042Z,5.17
2023-02-11T11:26:46.623Z,5.87
2023-02-11T11:32:01.314Z,4.70
2023-02-11T11:37:29.356Z,5.43
2023-02-11T11:42:36.033Z,3.83
2023-02-11T11:47:43.534Z,4.90
2023-02-11T11:53:01.494Z,5.23
2023-02-11T11:58:06.940Z,3.60
2023-02-11T12:03:27.570Z,4.90
2023-02-11T12:09:12.712Z,4.70
2023-02-11T12:14:35.636Z,4.67
2023-02-11T12:20:14.406Z,4.50
2023-02-11T12:25:30.884Z,5.00
2023-02-11T12:30:45.103Z,4.50
2023-02-11T12:35:58.941Z,4.50
2023-02-11T12:41:39.754Z,4.97
2023-02-11T12:46:51.297Z,7.07
2023-02-11T12:52:08.973Z,5.97
2023-02-11T12:57:19.605Z,6.07
2023-02-11T13:02:31.966Z,5.63
2023-02-11T13:07:39.636Z,6.00
2023-02-11T13:13:09.073Z,4.80
2023-02-11T13:18:32.686Z,5.57
2023-02-11T13:23:39.920Z,5.77
2023-02-11T13:29:07.809Z,5.13
2023-02-11T13:34:46.625Z,5.43
2023-02-11T13:39:57.027Z,5.07
2023-02-11T13:44:58.980Z,5.60
2023-02-11T13:50:06.420Z,5.90
2023-02-11T13:55:20.528Z,6.00
2023-02-11T14:00:37.276Z,4.97
2023-02-11T14:06:26.729Z,6.23
2023-02-11T14:11:40.914Z,6.17
2023-02-11T14:17:17.042Z,6.13
2023-02-11T14:22:31.753Z,7.20
2023-02-11T14:27:37.501Z,7.37
2023-02-11T14:32:55.437Z,7.07
2023-02-11T14:38:05.212Z,7.13
2023-02-11T14:43:16.268Z,7.20
2023-02-11T14:48:20.114Z,10.10
2023-02-11T14:53:26.338Z,8.73
2023-02-11T14:58:30.153Z,6.70
2023-02-11T15:03:43.073Z,7.50
2023-02-11T15:09:05.059Z,11.33
2023-02-11T15:14:12.025Z,8.93
2023-02-11T15:19:37.028Z,7.83
2023-02-11T15:24:40.247Z,6.37
2023-02-11T15:29:50.647Z,7.77
2023-02-11T15:34:56.773Z,7.33
2023-02-11T15:40:14.861Z,13.53
2023-02-11T15:45:17.570Z,23.55
2023-02-11T15:50:27.532Z,9.13
2023-02-11T15:55:29.915Z,7.87
2023-02-11T16:00:40.024Z,8.23
2023-02-11T16:05:42.775Z,8.77
2023-02-11T16:10:58.716Z,9.10
2023-02-11T16:16:07.431Z,9.30
2023-02-11T16:21:18.934Z,8.33
2023-02-11T16:26:29.354Z,9.07
2023-02-11T16:31:37.205Z,9.40
2023-02-11T16:36:41.490Z,10.87
2023-02-11T16:41:43.550Z,9.00
2023-02-11T16:46:50.836Z,9.10
2023-02-11T16:51:56.609Z,11.37
2023-02-11T16:57:00.745Z,10.10
2023-02-11T17:02:03.925Z,10.53
2023-02-11T17:07:07.869Z,9.80
2023-02-11T17:12:12.869Z,11.33
2023-02-11T17:17:17.502Z,13.13
2023-02-11T17:22:23.413Z,8.97
2023-02-11T17:27:25.138Z,12.40
2023-02-11T17:32:29.660Z,12.30
2023-02-11T17:37:34.774Z,10.03
2023-02-11T17:42:40.883Z,10.97
2023-02-11T17:47:52.265Z,11.27
2023-02-11T17:52:54.112Z,17.77
2023-02-11T17:57:58.232Z,12.07
2023-02-11T18:03:03.823Z,11.40
2023-02-11T18:08:07.308Z,10.73
2023-02-11T18:13:08.995Z,12.30
2023-02-11T18:18:11.235Z,12.03
2023-02-11T18:23:15.435Z,13.60
2023-02-11T18:28:17.173Z,10.23
2023-02-11T18:33:22.868Z,11.10
2023-02-11T18:38:27.390Z,11.87
2023-02-11T18:43:33.708Z,14.77
2023-02-11T18:48:37.873Z,16.37
2023-02-11T18:53:43.104Z,12.97
2023-02-11T18:58:51.380Z,12.53
2023-02-11T19:03:54.328Z,13.67
2023-02-11T19:08:59.968Z,13.83
2023-02-11T19:14:10.081Z,14.57
2023-02-11T19:19:15.374Z,15.00
2023-02-11T19:24:19.986Z,15.30
2023-02-11T19:29:22.033Z,15.97
2023-02-11T19:34:27.805Z,15.57
2023-02-11T19:39:32.931Z,13.97
2023-02-11T19:44:34.791Z,14.67
2023-02-11T19:49:41.236Z,15.07
2023-02-11T19:54:46.293Z,15.73
2023-02-11T19:59:50.927Z,15.60
2023-02-11T20:04:52.653Z,19.20
2023-02-11T20:09:57.533Z,16.90
2023-02-11T20:15:02.426Z,16.70
2023-02-11T20:20:05.468Z,17.83
2023-02-11T20:25:12.429Z,18.57
2023-02-11T20:30:14.842Z,19.07
2023-02-11T20:35:18.830Z,20.00
2023-02-11T20:40:20.666Z,19.23
2023-02-11T20:45:24.441Z,19.93
2023-02-11T20:50:28.516Z,19.10
2023-02-11T20:55:33.712Z,20.10
2023-02-11T21:00:38.726Z,19.37
2023-02-11T21:05:43.378Z,20.93
2023-02-11T21:10:50.658Z,18.73
2023-02-11T21:15:55.946Z,17.73
2023-02-11T21:20:57.990Z,21.50
2023-02-11T21:25:59.724Z,21.57
2023-02-11T21:31:04.252Z,24.77
2023-02-11T21:36:10.612Z,23.60
2023-02-11T21:41:15.685Z,22.17
2023-02-11T21:46:19.046Z,25.17
2023-02-11T21:51:28.770Z,25.37
2023-02-11T21:56:33.307Z,23.67
2023-02-11T22:01:35.860Z,28.93
2023-02-11T22:06:41.230Z,27.37
2023-02-11T22:11:49.245Z,28.37
2023-02-11T22:16:55.304Z,22.93
2023-02-11T22:21:57.110Z,26.63
2023-02-11T22:26:58.787Z,26.47
2023-02-11T22:32:02.849Z,21.97
2023-02-11T22:37:07.607Z,22.63
2023-02-11T22:42:09.514Z,25.13
2023-02-11T22:47:13.667Z,21.43
2023-02-11T22:52:16.794Z,22.67
2023-02-11T22:57:21.004Z,24.80
2023-02-11T23:02:28.587Z,23.70
2023-02-11T23:07:38.353Z,27.20
2023-02-11T23:12:44.524Z,26.17
2023-02-11T23:17:46.185Z,25.27
2023-02-11T23:22:50.134Z,25.13
2023-02-11T23:27:56.532Z,27.90
2023-02-11T23:33:00.549Z,30.33
2023-02-11T23:38:05.010Z,26.70
2023-02-11T23:43:09.204Z,27.73
2023-02-11T23:48:14.205Z,29.20
2023-02-11T23:53:18.537Z,33.33
2023-02-11T23:58:26.333Z,35.07
